sensor_id;sensor_type;location;lat;lon;timestamp;P1;durP1;ratioP1;P2;durP2;ratioP2
22778;SDS011;11556;51.194;3.800;2023-04-08T00:00:47;21.50;;;6.15;;
22778;SDS011;11556;51.194;3.800;2023-04-08T00:03:13;17.73;;;6.68;;
22778;SDS011;11556;51.194;3.800;2023-04-08T00:05:39;23.25;;;6.88;;
22778;SDS011;11556;51.194;3.800;2023-04-08T00:08:06;21.13;;;7.03;;
22778;SDS011;11556;51.194;3.800;2023-04-08T00:10:32;17.73;;;6.53;;
22778;SDS011;11556;51.194;3.800;2023-04-08T00:12:58;23.30;;;7.35;;
22778;SDS011;11556;51.194;3.800;2023-04-08T00:15:25;18.08;;;7.32;;
22778;SDS011;11556;51.194;3.800;2023-04-08T00:17:50;19.80;;;8.10;;
22778;SDS011;11556;51.194;3.800;2023-04-08T00:20:18;20.48;;;7.80;;
22778;SDS011;11556;51.194;3.800;2023-04-08T00:22:44;19.13;;;7.90;;
22778;SDS011;11556;51.194;3.800;2023-04-08T00:25:10;23.52;;;9.57;;
22778;SDS011;11556;51.194;3.800;2023-04-08T00:27:36;20.20;;;7.72;;
22778;SDS011;11556;51.194;3.800;2023-04-08T00:30:02;22.40;;;8.80;;
22778;SDS011;11556;51.194;3.800;2023-04-08T00:32:27;26.17;;;7.93;;
22778;SDS011;11556;51.194;3.800;2023-04-08T00:34:53;26.85;;;9.07;;
22778;SDS011;11556;51.194;3.800;2023-04-08T00:37:19;23.20;;;8.68;;
22778;SDS011;11556;51.194;3.800;2023-04-08T00:39:45;26.33;;;8.30;;
22778;SDS011;11556;51.194;3.800;2023-04-08T00:42:11;22.13;;;7.85;;
22778;SDS011;11556;51.194;3.800;2023-04-08T00:44:36;20.90;;;7.78;;
22778;SDS011;11556;51.194;3.800;2023-04-08T00:47:02;16.58;;;7.38;;
22778;SDS011;11556;51.194;3.800;2023-04-08T00:49:30;21.92;;;7.63;;
22778;SDS011;11556;51.194;3.800;2023-04-08T00:51:55;23.77;;;7.32;;
22778;SDS011;11556;51.194;3.800;2023-04-08T00:54:22;27.33;;;7.75;;
22778;SDS011;11556;51.194;3.800;2023-04-08T00:56:48;21.92;;;7.70;;
22778;SDS011;11556;51.194;3.800;2023-04-08T00:59:14;20.52;;;7.93;;
22778;SDS011;11556;51.194;3.800;2023-04-08T01:04:28;22.63;;;7.43;;
22778;SDS011;11556;51.194;3.800;2023-04-08T01:07:06;24.92;;;7.63;;
22778;SDS011;11556;51.194;3.800;2023-04-08T01:09:41;25.02;;;7.95;;
22778;SDS011;11556;51.194;3.800;2023-04-08T01:12:10;22.92;;;8.05;;
22778;SDS011;11556;51.194;3.800;2023-04-08T01:14:42;18.55;;;8.55;;
22778;SDS011;11556;51.194;3.800;2023-04-08T01:17:10;16.58;;;8.32;;
22778;SDS011;11556;51.194;3.800;2023-04-08T01:19:37;21.45;;;7.30;;
22778;SDS011;11556;51.194;3.800;2023-04-08T01:22:18;18.85;;;8.77;;
22778;SDS011;11556;51.194;3.800;2023-04-08T01:25:04;21.83;;;8.57;;
22778;SDS011;11556;51.194;3.800;2023-04-08T01:27:34;19.23;;;8.40;;
22778;SDS011;11556;51.194;3.800;2023-04-08T01:30:02;23.20;;;8.52;;
22778;SDS011;11556;51.194;3.800;2023-04-08T01:32:31;21.23;;;8.70;;
22778;SDS011;11556;51.194;3.800;2023-04-08T01:34:58;27.13;;;9.75;;
22778;SDS011;11556;51.194;3.800;2023-04-08T01:37:26;27.38;;;9.52;;
22778;SDS011;11556;51.194;3.800;2023-04-08T01:39:53;25.83;;;9.25;;
22778;SDS011;11556;51.194;3.800;2023-04-08T01:42:21;26.48;;;9.98;;
22778;SDS011;11556;51.194;3.800;2023-04-08T01:44:49;26.10;;;9.57;;
22778;SDS011;11556;51.194;3.800;2023-04-08T01:47:18;23.02;;;9.48;;
22778;SDS011;11556;51.194;3.800;2023-04-08T01:49:44;29.17;;;10.13;;
22778;SDS011;11556;51.194;3.800;2023-04-08T01:52:10;23.45;;;9.65;;
22778;SDS011;11556;51.194;3.800;2023-04-08T01:54:37;24.95;;;10.57;;
22778;SDS011;11556;51.194;3.800;2023-04-08T01:57:05;24.98;;;10.70;;
22778;SDS011;11556;51.194;3.800;2023-04-08T01:59:36;25.08;;;10.70;;
22778;SDS011;11556;51.194;3.800;2023-04-08T02:02:04;32.28;;;10.55;;
22778;SDS011;11556;51.194;3.800;2023-04-08T02:04:33;22.42;;;10.10;;
22778;SDS011;11556;51.194;3.800;2023-04-08T02:07:00;29.08;;;10.70;;
22778;SDS011;11556;51.194;3.800;2023-04-08T02:09:26;28.63;;;10.52;;
22778;SDS011;11556;51.194;3.800;2023-04-08T02:11:52;26.30;;;9.57;;
22778;SDS011;11556;51.194;3.800;2023-04-08T02:14:17;21.65;;;9.18;;
22778;SDS011;11556;51.194;3.800;2023-04-08T02:16:46;27.95;;;10.60;;
22778;SDS011;11556;51.194;3.800;2023-04-08T02:19:29;26.13;;;9.50;;
22778;SDS011;11556;51.194;3.800;2023-04-08T02:22:11;28.30;;;9.90;;
22778;SDS011;11556;51.194;3.800;2023-04-08T02:25:00;25.10;;;9.45;;
22778;SDS011;11556;51.194;3.800;2023-04-08T02:27:28;22.40;;;10.25;;
22778;SDS011;11556;51.194;3.800;2023-04-08T02:29:58;22.33;;;9.13;;
22778;SDS011;11556;51.194;3.800;2023-04-08T02:32:25;23.73;;;9.80;;
22778;SDS011;11556;51.194;3.800;2023-04-08T02:34:51;25.25;;;9.55;;
22778;SDS011;11556;51.194;3.800;2023-04-08T02:37:18;21.02;;;9.18;;
22778;SDS011;11556;51.194;3.800;2023-04-08T02:39:44;24.50;;;9.43;;
22778;SDS011;11556;51.194;3.800;2023-04-08T02:42:10;26.35;;;9.05;;
22778;SDS011;11556;51.194;3.800;2023-04-08T02:44:35;23.20;;;9.20;;
22778;SDS011;11556;51.194;3.800;2023-04-08T02:47:01;24.67;;;9.55;;
22778;SDS011;11556;51.194;3.800;2023-04-08T02:49:27;25.00;;;9.02;;
22778;SDS011;11556;51.194;3.800;2023-04-08T02:51:52;22.23;;;9.25;;
22778;SDS011;11556;51.194;3.800;2023-04-08T02:54:18;19.13;;;8.35;;
22778;SDS011;11556;51.194;3.800;2023-04-08T02:56:45;27.15;;;9.02;;
22778;SDS011;11556;51.194;3.800;2023-04-08T02:59:10;22.00;;;9.18;;
22778;SDS011;11556;51.194;3.800;2023-04-08T03:01:36;20.17;;;9.65;;
22778;SDS011;11556;51.194;3.800;2023-04-08T03:04:02;26.95;;;9.27;;
22778;SDS011;11556;51.194;3.800;2023-04-08T03:06:27;18.98;;;8.70;;
22778;SDS011;11556;51.194;3.800;2023-04-08T03:08:53;22.45;;;9.50;;
22778;SDS011;11556;51.194;3.800;2023-04-08T03:11:18;25.25;;;9.90;;
22778;SDS011;11556;51.194;3.800;2023-04-08T03:13:45;19.77;;;9.30;;
22778;SDS011;11556;51.194;3.800;2023-04-08T03:16:11;21.77;;;10.00;;
22778;SDS011;11556;51.194;3.800;2023-04-08T03:18:36;24.77;;;9.70;;
22778;SDS011;11556;51.194;3.800;2023-04-08T03:21:02;22.55;;;8.73;;
22778;SDS011;11556;51.194;3.800;2023-04-08T03:23:27;21.30;;;8.73;;
22778;SDS011;11556;51.194;3.800;2023-04-08T03:25:53;25.75;;;9.35;;
22778;SDS011;11556;51.194;3.800;2023-04-08T03:28:19;20.60;;;9.27;;
22778;SDS011;11556;51.194;3.800;2023-04-08T03:30:44;22.55;;;9.48;;
22778;SDS011;11556;51.194;3.800;2023-04-08T03:33:10;27.17;;;9.68;;
22778;SDS011;11556;51.194;3.800;2023-04-08T03:35:36;22.02;;;9.15;;
22778;SDS011;11556;51.194;3.800;2023-04-08T03:38:02;17.65;;;8.95;;
22778;SDS011;11556;51.194;3.800;2023-04-08T03:40:28;25.38;;;9.68;;
22778;SDS011;11556;51.194;3.800;2023-04-08T03:42:54;24.25;;;9.38;;
22778;SDS011;11556;51.194;3.800;2023-04-08T03:45:19;21.17;;;9.48;;
22778;SDS011;11556;51.194;3.800;2023-04-08T03:47:45;22.02;;;9.15;;
22778;SDS011;11556;51.194;3.800;2023-04-08T03:50:11;24.63;;;9.05;;
22778;SDS011;11556;51.194;3.800;2023-04-08T03:52:36;22.52;;;9.65;;
22778;SDS011;11556;51.194;3.800;2023-04-08T03:55:02;22.60;;;8.32;;
22778;SDS011;11556;51.194;3.800;2023-04-08T03:57:28;20.17;;;8.75;;
22778;SDS011;11556;51.194;3.800;2023-04-08T03:59:53;26.35;;;9.13;;
22778;SDS011;11556;51.194;3.800;2023-04-08T04:02:19;22.65;;;8.55;;
22778;SDS011;11556;51.194;3.800;2023-04-08T04:04:44;20.95;;;9.15;;
22778;SDS011;11556;51.194;3.800;2023-04-08T04:07:10;20.92;;;8.95;;
22778;SDS011;11556;51.194;3.800;2023-04-08T04:09:36;20.50;;;9.60;;
22778;SDS011;11556;51.194;3.800;2023-04-08T04:12:08;27.85;;;9.35;;
22778;SDS011;11556;51.194;3.800;2023-04-08T04:14:33;21.05;;;9.57;;
22778;SDS011;11556;51.194;3.800;2023-04-08T04:16:59;20.42;;;8.93;;
22778;SDS011;11556;51.194;3.800;2023-04-08T04:19:28;17.77;;;9.40;;
22778;SDS011;11556;51.194;3.800;2023-04-08T04:21:55;18.75;;;8.90;;
22778;SDS011;11556;51.194;3.800;2023-04-08T04:24:20;26.90;;;9.95;;
22778;SDS011;11556;51.194;3.800;2023-04-08T04:26:46;24.63;;;10.45;;
22778;SDS011;11556;51.194;3.800;2023-04-08T04:29:12;21.13;;;9.48;;
22778;SDS011;11556;51.194;3.800;2023-04-08T04:31:37;16.58;;;9.10;;
22778;SDS011;11556;51.194;3.800;2023-04-08T04:34:03;21.55;;;9.95;;
22778;SDS011;11556;51.194;3.800;2023-04-08T04:36:28;22.13;;;10.00;;
22778;SDS011;11556;51.194;3.800;2023-04-08T04:38:55;22.75;;;9.95;;
22778;SDS011;11556;51.194;3.800;2023-04-08T04:41:20;20.55;;;9.90;;
22778;SDS011;11556;51.194;3.800;2023-04-08T04:43:46;23.60;;;9.73;;
22778;SDS011;11556;51.194;3.800;2023-04-08T04:46:12;28.58;;;10.50;;
22778;SDS011;11556;51.194;3.800;2023-04-08T04:48:37;20.48;;;9.88;;
22778;SDS011;11556;51.194;3.800;2023-04-08T04:51:03;25.88;;;10.75;;
22778;SDS011;11556;51.194;3.800;2023-04-08T04:53:29;22.73;;;10.80;;
22778;SDS011;11556;51.194;3.800;2023-04-08T04:55:55;27.70;;;11.45;;
22778;SDS011;11556;51.194;3.800;2023-04-08T04:58:21;25.67;;;11.52;;
22778;SDS011;11556;51.194;3.800;2023-04-08T05:00:46;29.88;;;11.48;;
22778;SDS011;11556;51.194;3.800;2023-04-08T05:03:12;30.40;;;11.27;;
22778;SDS011;11556;51.194;3.800;2023-04-08T05:05:38;25.38;;;11.48;;
22778;SDS011;11556;51.194;3.800;2023-04-08T05:08:03;26.83;;;12.15;;
22778;SDS011;11556;51.194;3.800;2023-04-08T05:10:31;26.70;;;12.10;;
22778;SDS011;11556;51.194;3.800;2023-04-08T05:12:57;30.30;;;11.48;;
22778;SDS011;11556;51.194;3.800;2023-04-08T05:15:22;28.23;;;11.80;;
22778;SDS011;11556;51.194;3.800;2023-04-08T05:17:48;22.67;;;11.25;;
22778;SDS011;11556;51.194;3.800;2023-04-08T05:20:14;27.35;;;12.10;;
22778;SDS011;11556;51.194;3.800;2023-04-08T05:22:39;24.83;;;12.48;;
22778;SDS011;11556;51.194;3.800;2023-04-08T05:25:06;23.33;;;11.30;;
22778;SDS011;11556;51.194;3.800;2023-04-08T05:27:32;32.20;;;12.50;;
22778;SDS011;11556;51.194;3.800;2023-04-08T05:29:58;35.65;;;14.73;;
22778;SDS011;11556;51.194;3.800;2023-04-08T05:32:24;25.67;;;12.23;;
22778;SDS011;11556;51.194;3.800;2023-04-08T05:34:49;30.77;;;11.63;;
22778;SDS011;11556;51.194;3.800;2023-04-08T05:37:15;25.60;;;11.18;;
22778;SDS011;11556;51.194;3.800;2023-04-08T05:39:40;28.40;;;12.15;;
22778;SDS011;11556;51.194;3.800;2023-04-08T05:42:06;31.55;;;11.82;;
22778;SDS011;11556;51.194;3.800;2023-04-08T05:44:32;24.38;;;10.73;;
22778;SDS011;11556;51.194;3.800;2023-04-08T05:46:57;29.73;;;12.00;;
22778;SDS011;11556;51.194;3.800;2023-04-08T05:49:24;25.75;;;13.50;;
22778;SDS011;11556;51.194;3.800;2023-04-08T05:51:49;20.88;;;11.27;;
22778;SDS011;11556;51.194;3.800;2023-04-08T05:54:15;27.00;;;13.48;;
22778;SDS011;11556;51.194;3.800;2023-04-08T05:56:40;29.20;;;13.05;;
22778;SDS011;11556;51.194;3.800;2023-04-08T05:59:06;30.98;;;14.50;;
22778;SDS011;11556;51.194;3.800;2023-04-08T06:01:32;27.40;;;13.25;;
22778;SDS011;11556;51.194;3.800;2023-04-08T06:03:57;26.75;;;12.90;;
22778;SDS011;11556;51.194;3.800;2023-04-08T06:06:23;23.83;;;11.38;;
22778;SDS011;11556;51.194;3.800;2023-04-08T06:08:50;20.65;;;10.40;;
22778;SDS011;11556;51.194;3.800;2023-04-08T06:11:15;30.40;;;12.05;;
22778;SDS011;11556;51.194;3.800;2023-04-08T06:13:41;22.65;;;11.15;;
22778;SDS011;11556;51.194;3.800;2023-04-08T06:16:10;25.33;;;11.43;;
22778;SDS011;11556;51.194;3.800;2023-04-08T06:18:37;30.17;;;12.68;;
22778;SDS011;11556;51.194;3.800;2023-04-08T06:21:03;34.42;;;14.18;;
22778;SDS011;11556;51.194;3.800;2023-04-08T06:23:28;32.97;;;12.50;;
22778;SDS011;11556;51.194;3.800;2023-04-08T06:25:54;31.50;;;13.98;;
22778;SDS011;11556;51.194;3.800;2023-04-08T06:28:20;33.00;;;13.45;;
22778;SDS011;11556;51.194;3.800;2023-04-08T06:30:46;24.80;;;12.73;;
22778;SDS011;11556;51.194;3.800;2023-04-08T06:33:12;33.97;;;13.40;;
22778;SDS011;11556;51.194;3.800;2023-04-08T06:35:37;28.02;;;13.50;;
22778;SDS011;11556;51.194;3.800;2023-04-08T06:38:03;35.95;;;14.13;;
22778;SDS011;11556;51.194;3.800;2023-04-08T06:40:29;28.98;;;13.15;;
22778;SDS011;11556;51.194;3.800;2023-04-08T06:42:55;33.30;;;13.85;;
22778;SDS011;11556;51.194;3.800;2023-04-08T06:45:20;37.55;;;14.07;;
22778;SDS011;11556;51.194;3.800;2023-04-08T06:47:46;33.10;;;14.05;;
22778;SDS011;11556;51.194;3.800;2023-04-08T06:50:11;25.15;;;13.27;;
22778;SDS011;11556;51.194;3.800;2023-04-08T06:52:37;27.13;;;13.80;;
22778;SDS011;11556;51.194;3.800;2023-04-08T06:55:03;32.55;;;14.05;;
22778;SDS011;11556;51.194;3.800;2023-04-08T06:57:29;31.15;;;13.35;;
22778;SDS011;11556;51.194;3.800;2023-04-08T06:59:54;25.90;;;13.40;;
22778;SDS011;11556;51.194;3.800;2023-04-08T07:02:20;25.77;;;12.30;;
22778;SDS011;11556;51.194;3.800;2023-04-08T07:04:46;29.70;;;12.82;;
22778;SDS011;11556;51.194;3.800;2023-04-08T07:07:12;29.75;;;13.07;;
22778;SDS011;11556;51.194;3.800;2023-04-08T07:09:38;29.98;;;12.95;;
22778;SDS011;11556;51.194;3.800;2023-04-08T07:12:05;30.90;;;12.88;;
22778;SDS011;11556;51.194;3.800;2023-04-08T07:14:31;29.23;;;12.02;;
22778;SDS011;11556;51.194;3.800;2023-04-08T07:16:57;27.17;;;12.82;;
22778;SDS011;11556;51.194;3.800;2023-04-08T07:19:22;32.88;;;13.30;;
22778;SDS011;11556;51.194;3.800;2023-04-08T07:21:48;25.30;;;12.52;;
22778;SDS011;11556;51.194;3.800;2023-04-08T07:24:14;23.05;;;11.52;;
22778;SDS011;11556;51.194;3.800;2023-04-08T07:26:40;20.42;;;10.90;;
22778;SDS011;11556;51.194;3.800;2023-04-08T07:29:06;20.08;;;10.65;;
22778;SDS011;11556;51.194;3.800;2023-04-08T07:31:31;24.40;;;10.95;;
22778;SDS011;11556;51.194;3.800;2023-04-08T07:33:57;25.42;;;10.60;;
22778;SDS011;11556;51.194;3.800;2023-04-08T07:36:23;15.38;;;9.27;;
22778;SDS011;11556;51.194;3.800;2023-04-08T07:38:49;20.38;;;9.27;;
22778;SDS011;11556;51.194;3.800;2023-04-08T07:41:14;21.98;;;9.90;;
22778;SDS011;11556;51.194;3.800;2023-04-08T07:43:40;21.80;;;9.43;;
22778;SDS011;11556;51.194;3.800;2023-04-08T07:46:05;24.90;;;10.30;;
22778;SDS011;11556;51.194;3.800;2023-04-08T07:48:32;19.40;;;9.68;;
22778;SDS011;11556;51.194;3.800;2023-04-08T07:51:01;22.60;;;10.35;;
22778;SDS011;11556;51.194;3.800;2023-04-08T07:53:34;25.10;;;10.95;;
22778;SDS011;11556;51.194;3.800;2023-04-08T07:56:00;22.60;;;10.32;;
22778;SDS011;11556;51.194;3.800;2023-04-08T07:58:29;22.30;;;10.70;;
22778;SDS011;11556;51.194;3.800;2023-04-08T08:00:56;23.35;;;10.85;;
22778;SDS011;11556;51.194;3.800;2023-04-08T08:03:22;19.17;;;10.05;;
22778;SDS011;11556;51.194;3.800;2023-04-08T08:05:48;22.77;;;11.65;;
22778;SDS011;11556;51.194;3.800;2023-04-08T08:08:14;21.52;;;10.77;;
22778;SDS011;11556;51.194;3.800;2023-04-08T08:10:40;22.83;;;10.13;;
22778;SDS011;11556;51.194;3.800;2023-04-08T08:13:05;22.85;;;11.00;;
22778;SDS011;11556;51.194;3.800;2023-04-08T08:15:32;21.80;;;11.27;;
22778;SDS011;11556;51.194;3.800;2023-04-08T08:17:58;24.88;;;11.93;;
22778;SDS011;11556;51.194;3.800;2023-04-08T08:20:23;18.42;;;10.68;;
22778;SDS011;11556;51.194;3.800;2023-04-08T08:22:49;20.33;;;10.18;;
22778;SDS011;11556;51.194;3.800;2023-04-08T08:25:15;21.50;;;9.60;;
22778;SDS011;11556;51.194;3.800;2023-04-08T08:27:41;17.88;;;8.88;;
22778;SDS011;11556;51.194;3.800;2023-04-08T08:30:07;18.13;;;8.68;;
22778;SDS011;11556;51.194;3.800;2023-04-08T08:32:34;21.23;;;9.35;;
22778;SDS011;11556;51.194;3.800;2023-04-08T08:35:00;17.25;;;9.07;;
22778;SDS011;11556;51.194;3.800;2023-04-08T08:37:26;18.40;;;10.10;;
22778;SDS011;11556;51.194;3.800;2023-04-08T08:39:51;19.80;;;9.85;;
22778;SDS011;11556;51.194;3.800;2023-04-08T08:42:23;19.67;;;11.00;;
22778;SDS011;11556;51.194;3.800;2023-04-08T08:44:50;17.45;;;10.35;;
22778;SDS011;11556;51.194;3.800;2023-04-08T08:47:16;18.08;;;10.20;;
22778;SDS011;11556;51.194;3.800;2023-04-08T08:49:42;21.17;;;10.70;;
22778;SDS011;11556;51.194;3.800;2023-04-08T08:52:09;20.38;;;10.10;;
22778;SDS011;11556;51.194;3.800;2023-04-08T08:54:35;17.38;;;8.90;;
22778;SDS011;11556;51.194;3.800;2023-04-08T08:57:01;19.13;;;8.75;;
22778;SDS011;11556;51.194;3.800;2023-04-08T08:59:27;17.17;;;8.60;;
22778;SDS011;11556;51.194;3.800;2023-04-08T09:01:52;17.30;;;9.30;;
22778;SDS011;11556;51.194;3.800;2023-04-08T09:04:19;21.85;;;10.50;;
22778;SDS011;11556;51.194;3.800;2023-04-08T09:06:47;18.63;;;9.07;;
22778;SDS011;11556;51.194;3.800;2023-04-08T09:09:15;20.90;;;9.25;;
22778;SDS011;11556;51.194;3.800;2023-04-08T09:11:42;15.13;;;9.25;;
22778;SDS011;11556;51.194;3.800;2023-04-08T09:14:43;15.40;;;8.63;;
22778;SDS011;11556;51.194;3.800;2023-04-08T09:17:01;21.25;;;9.15;;
22778;SDS011;11556;51.194;3.800;2023-04-08T09:19:27;20.55;;;9.38;;
22778;SDS011;11556;51.194;3.800;2023-04-08T09:22:11;20.15;;;10.85;;
22778;SDS011;11556;51.194;3.800;2023-04-08T09:24:36;23.58;;;10.93;;
22778;SDS011;11556;51.194;3.800;2023-04-08T09:27:03;21.33;;;10.98;;
22778;SDS011;11556;51.194;3.800;2023-04-08T09:29:29;21.13;;;11.60;;
22778;SDS011;11556;51.194;3.800;2023-04-08T09:31:55;23.70;;;10.65;;
22778;SDS011;11556;51.194;3.800;2023-04-08T09:34:22;19.52;;;10.68;;
22778;SDS011;11556;51.194;3.800;2023-04-08T09:36:48;22.95;;;11.23;;
22778;SDS011;11556;51.194;3.800;2023-04-08T09:39:14;23.00;;;11.85;;
22778;SDS011;11556;51.194;3.800;2023-04-08T09:41:41;23.38;;;11.38;;
22778;SDS011;11556;51.194;3.800;2023-04-08T09:44:09;22.52;;;11.45;;
22778;SDS011;11556;51.194;3.800;2023-04-08T09:46:39;23.65;;;10.15;;
22778;SDS011;11556;51.194;3.800;2023-04-08T09:49:12;19.40;;;10.35;;
22778;SDS011;11556;51.194;3.800;2023-04-08T09:51:56;17.88;;;9.52;;
22778;SDS011;11556;51.194;3.800;2023-04-08T09:57:25;24.67;;;11.05;;
22778;SDS011;11556;51.194;3.800;2023-04-08T09:59:59;26.08;;;10.40;;
22778;SDS011;11556;51.194;3.800;2023-04-08T10:05:23;18.17;;;9.90;;
22778;SDS011;11556;51.194;3.800;2023-04-08T10:07:49;20.42;;;10.82;;
22778;SDS011;11556;51.194;3.800;2023-04-08T10:10:15;19.23;;;8.90;;
22778;SDS011;11556;51.194;3.800;2023-04-08T10:12:41;20.20;;;10.48;;
22778;SDS011;11556;51.194;3.800;2023-04-08T10:15:26;20.52;;;10.80;;
22778;SDS011;11556;51.194;3.800;2023-04-08T10:17:54;16.85;;;9.55;;
22778;SDS011;11556;51.194;3.800;2023-04-08T10:20:46;16.67;;;9.73;;
22778;SDS011;11556;51.194;3.800;2023-04-08T10:23:16;18.90;;;9.77;;
22778;SDS011;11556;51.194;3.800;2023-04-08T10:38:17;19.80;;;9.25;;
22778;SDS011;11556;51.194;3.800;2023-04-08T10:40:44;21.85;;;10.60;;
22778;SDS011;11556;51.194;3.800;2023-04-08T10:43:10;20.85;;;10.90;;
22778;SDS011;11556;51.194;3.800;2023-04-08T10:45:37;20.90;;;10.65;;
22778;SDS011;11556;51.194;3.800;2023-04-08T10:48:14;19.17;;;10.75;;
22778;SDS011;11556;51.194;3.800;2023-04-08T10:50:42;17.40;;;8.73;;
22778;SDS011;11556;51.194;3.800;2023-04-08T10:53:08;14.68;;;9.25;;
22778;SDS011;11556;51.194;3.800;2023-04-08T10:55:35;13.93;;;9.00;;
22778;SDS011;11556;51.194;3.800;2023-04-08T10:58:04;19.13;;;9.63;;
22778;SDS011;11556;51.194;3.800;2023-04-08T11:00:32;18.88;;;9.27;;
22778;SDS011;11556;51.194;3.800;2023-04-08T11:02:59;14.63;;;8.00;;
22778;SDS011;11556;51.194;3.800;2023-04-08T11:05:26;17.02;;;8.35;;
22778;SDS011;11556;51.194;3.800;2023-04-08T11:07:51;15.20;;;9.95;;
22778;SDS011;11556;51.194;3.800;2023-04-08T11:10:17;15.85;;;9.60;;
22778;SDS011;11556;51.194;3.800;2023-04-08T11:12:43;17.85;;;9.50;;
22778;SDS011;11556;51.194;3.800;2023-04-08T11:15:08;16.85;;;8.82;;
22778;SDS011;11556;51.194;3.800;2023-04-08T11:17:35;21.33;;;9.25;;
22778;SDS011;11556;51.194;3.800;2023-04-08T11:20:01;15.40;;;9.95;;
22778;SDS011;11556;51.194;3.800;2023-04-08T11:22:30;16.58;;;9.40;;
22778;SDS011;11556;51.194;3.800;2023-04-08T11:24:58;17.38;;;9.95;;
22778;SDS011;11556;51.194;3.800;2023-04-08T11:27:24;23.08;;;10.70;;
22778;SDS011;11556;51.194;3.800;2023-04-08T11:29:52;18.70;;;10.20;;
22778;SDS011;11556;51.194;3.800;2023-04-08T11:32:20;16.27;;;10.48;;
22778;SDS011;11556;51.194;3.800;2023-04-08T11:34:47;18.27;;;10.77;;
22778;SDS011;11556;51.194;3.800;2023-04-08T11:37:13;15.60;;;9.48;;
22778;SDS011;11556;51.194;3.800;2023-04-08T11:39:41;20.23;;;9.88;;
22778;SDS011;11556;51.194;3.800;2023-04-08T11:42:07;19.50;;;10.15;;
22778;SDS011;11556;51.194;3.800;2023-04-08T11:44:33;15.93;;;9.52;;
22778;SDS011;11556;51.194;3.800;2023-04-08T11:46:59;19.05;;;10.43;;
22778;SDS011;11556;51.194;3.800;2023-04-08T11:49:26;19.60;;;11.25;;
22778;SDS011;11556;51.194;3.800;2023-04-08T11:51:53;19.75;;;11.55;;
22778;SDS011;11556;51.194;3.800;2023-04-08T11:54:29;18.95;;;10.90;;
22778;SDS011;11556;51.194;3.800;2023-04-08T11:56:56;16.75;;;10.98;;
22778;SDS011;11556;51.194;3.800;2023-04-08T11:59:23;17.90;;;10.10;;
22778;SDS011;11556;51.194;3.800;2023-04-08T12:01:52;17.23;;;10.88;;
22778;SDS011;11556;51.194;3.800;2023-04-08T12:04:18;20.35;;;10.82;;
22778;SDS011;11556;51.194;3.800;2023-04-08T12:06:44;17.45;;;10.88;;
22778;SDS011;11556;51.194;3.800;2023-04-08T12:09:13;20.30;;;10.65;;
22778;SDS011;11556;51.194;3.800;2023-04-08T12:11:39;13.88;;;9.38;;
22778;SDS011;11556;51.194;3.800;2023-04-08T12:14:06;16.85;;;11.18;;
22778;SDS011;11556;51.194;3.800;2023-04-08T12:16:31;16.63;;;10.57;;
22778;SDS011;11556;51.194;3.800;2023-04-08T12:18:57;17.85;;;11.50;;
22778;SDS011;11556;51.194;3.800;2023-04-08T12:21:22;20.15;;;11.73;;
22778;SDS011;11556;51.194;3.800;2023-04-08T12:23:48;18.67;;;11.75;;
22778;SDS011;11556;51.194;3.800;2023-04-08T12:26:14;17.77;;;11.45;;
22778;SDS011;11556;51.194;3.800;2023-04-08T12:28:39;17.67;;;11.30;;
22778;SDS011;11556;51.194;3.800;2023-04-08T12:31:05;15.40;;;10.30;;
22778;SDS011;11556;51.194;3.800;2023-04-08T12:33:31;17.63;;;11.57;;
22778;SDS011;11556;51.194;3.800;2023-04-08T12:35:57;17.73;;;11.80;;
22778;SDS011;11556;51.194;3.800;2023-04-08T12:38:23;20.60;;;12.70;;
22778;SDS011;11556;51.194;3.800;2023-04-08T12:40:51;17.90;;;11.88;;
22778;SDS011;11556;51.194;3.800;2023-04-08T12:43:16;19.00;;;11.38;;
22778;SDS011;11556;51.194;3.800;2023-04-08T12:45:42;21.90;;;11.88;;
22778;SDS011;11556;51.194;3.800;2023-04-08T12:48:08;17.30;;;11.35;;
22778;SDS011;11556;51.194;3.800;2023-04-08T12:50:33;16.23;;;10.68;;
22778;SDS011;11556;51.194;3.800;2023-04-08T12:52:59;17.77;;;11.45;;
22778;SDS011;11556;51.194;3.800;2023-04-08T12:55:25;17.85;;;12.40;;
22778;SDS011;11556;51.194;3.800;2023-04-08T12:57:51;17.60;;;11.75;;
22778;SDS011;11556;51.194;3.800;2023-04-08T13:00:17;18.70;;;12.25;;
22778;SDS011;11556;51.194;3.800;2023-04-08T13:02:43;20.45;;;12.65;;
22778;SDS011;11556;51.194;3.800;2023-04-08T13:05:10;19.75;;;13.07;;
22778;SDS011;11556;51.194;3.800;2023-04-08T13:07:36;21.58;;;13.32;;
22778;SDS011;11556;51.194;3.800;2023-04-08T13:10:01;23.70;;;13.82;;
22778;SDS011;11556;51.194;3.800;2023-04-08T13:12:28;25.73;;;15.15;;
22778;SDS011;11556;51.194;3.800;2023-04-08T13:14:54;23.70;;;13.98;;
22778;SDS011;11556;51.194;3.800;2023-04-08T13:17:20;22.58;;;13.73;;
22778;SDS011;11556;51.194;3.800;2023-04-08T13:19:45;24.88;;;14.15;;
22778;SDS011;11556;51.194;3.800;2023-04-08T13:22:14;23.38;;;14.00;;
22778;SDS011;11556;51.194;3.800;2023-04-08T13:24:40;26.05;;;14.85;;
22778;SDS011;11556;51.194;3.800;2023-04-08T13:27:06;24.35;;;15.10;;
22778;SDS011;11556;51.194;3.800;2023-04-08T13:29:32;26.67;;;15.05;;
22778;SDS011;11556;51.194;3.800;2023-04-08T13:31:58;27.40;;;15.68;;
22778;SDS011;11556;51.194;3.800;2023-04-08T13:34:24;30.13;;;17.30;;
22778;SDS011;11556;51.194;3.800;2023-04-08T13:36:49;33.08;;;18.40;;
22778;SDS011;11556;51.194;3.800;2023-04-08T13:39:15;29.80;;;17.33;;
22778;SDS011;11556;51.194;3.800;2023-04-08T13:41:40;24.45;;;15.88;;
22778;SDS011;11556;51.194;3.800;2023-04-08T13:44:06;29.05;;;16.30;;
22778;SDS011;11556;51.194;3.800;2023-04-08T13:46:32;29.38;;;17.08;;
22778;SDS011;11556;51.194;3.800;2023-04-08T13:48:57;28.65;;;17.85;;
22778;SDS011;11556;51.194;3.800;2023-04-08T13:51:23;29.73;;;17.25;;
22778;SDS011;11556;51.194;3.800;2023-04-08T13:53:49;28.67;;;17.08;;
22778;SDS011;11556;51.194;3.800;2023-04-08T13:56:15;29.02;;;17.00;;
22778;SDS011;11556;51.194;3.800;2023-04-08T13:58:40;29.63;;;17.48;;
22778;SDS011;11556;51.194;3.800;2023-04-08T14:01:06;29.92;;;18.23;;
22778;SDS011;11556;51.194;3.800;2023-04-08T14:03:31;28.27;;;17.38;;
22778;SDS011;11556;51.194;3.800;2023-04-08T14:05:57;27.58;;;17.45;;
22778;SDS011;11556;51.194;3.800;2023-04-08T14:08:22;29.63;;;18.98;;
22778;SDS011;11556;51.194;3.800;2023-04-08T14:10:52;29.63;;;18.30;;
22778;SDS011;11556;51.194;3.800;2023-04-08T14:13:19;30.80;;;18.23;;
22778;SDS011;11556;51.194;3.800;2023-04-08T14:15:45;24.55;;;16.00;;
22778;SDS011;11556;51.194;3.800;2023-04-08T14:18:12;26.73;;;16.77;;
22778;SDS011;11556;51.194;3.800;2023-04-08T14:20:38;25.15;;;15.60;;
22778;SDS011;11556;51.194;3.800;2023-04-08T14:23:03;31.45;;;17.98;;
22778;SDS011;11556;51.194;3.800;2023-04-08T14:25:29;28.00;;;17.33;;
22778;SDS011;11556;51.194;3.800;2023-04-08T14:27:55;23.60;;;15.05;;
22778;SDS011;11556;51.194;3.800;2023-04-08T14:30:21;22.13;;;13.73;;
22778;SDS011;11556;51.194;3.800;2023-04-08T14:32:46;24.80;;;14.80;;
22778;SDS011;11556;51.194;3.800;2023-04-08T14:35:12;23.10;;;14.57;;
22778;SDS011;11556;51.194;3.800;2023-04-08T14:37:38;25.70;;;15.60;;
22778;SDS011;11556;51.194;3.800;2023-04-08T14:40:04;25.85;;;16.15;;
22778;SDS011;11556;51.194;3.800;2023-04-08T14:42:30;26.65;;;17.35;;
22778;SDS011;11556;51.194;3.800;2023-04-08T14:44:56;25.63;;;15.75;;